<?xml version="1.0" encoding="UTF-8" standalone="no" ?>
<gpx xmlns="http://www.topografix.com/GPX/1/1" xmlns:xsi="http://www.w3.org/2001/XMLSchema-instance" xsi:schemaLocation="http://www.topografix.com/GPX/1/1 http://www.topografix.com/GPX/1/1/gpx.xsd" version="1.1" creator="VisuGPX - https://www.visugpx.com">
  <metadata>
    <name>St Pierre D'entremont AL1</name>
  </metadata>
  <trk>
    <name><![CDATA[2021-10-28 16:18:25]]></name>
    <extensions>
      <line xmlns="http://www.topografix.com/GPX/gpx_style/0/2">
        <color>0000FF</color>
        <width>4</width>
      </line>
    </extensions>
    <trkseg>
      <trkpt lat="45.41792" lon="5.85353">
        <ele>644.7</ele>
        <time>2021-10-28T07:52:27Z</time>
      </trkpt>
      <trkpt lat="45.41777" lon="5.85323">
        <ele>643.26</ele>
        <time>2021-10-28T08:03:01Z</time>
      </trkpt>
      <trkpt lat="45.41765" lon="5.85289">
        <ele>640.86</ele>
        <time>2021-10-28T08:03:23Z</time>
      </trkpt>
      <trkpt lat="45.41746" lon="5.85261">
        <ele>638.45</ele>
        <time>2021-10-28T08:03:44Z</time>
      </trkpt>
      <trkpt lat="45.41725" lon="5.85239">
        <ele>635.09</ele>
        <time>2021-10-28T08:04:04Z</time>
      </trkpt>
      <trkpt lat="45.41712" lon="5.8521">
        <ele>633.65</ele>
        <time>2021-10-28T08:04:24Z</time>
      </trkpt>
      <trkpt lat="45.41714" lon="5.85169">
        <ele>634.13</ele>
        <time>2021-10-28T08:04:45Z</time>
      </trkpt>
      <trkpt lat="45.41718" lon="5.85125">
        <ele>634.61</ele>
        <time>2021-10-28T08:05:09Z</time>
      </trkpt>
      <trkpt lat="45.41721" lon="5.85086">
        <ele>634.61</ele>
        <time>2021-10-28T08:05:33Z</time>
      </trkpt>
      <trkpt lat="45.41722" lon="5.85045">
        <ele>633.65</ele>
        <time>2021-10-28T08:05:56Z</time>
      </trkpt>
      <trkpt lat="45.41724" lon="5.85003">
        <ele>633.65</ele>
        <time>2021-10-28T08:06:20Z</time>
      </trkpt>
      <trkpt lat="45.41727" lon="5.84959">
        <ele>633.65</ele>
        <time>2021-10-28T08:06:45Z</time>
      </trkpt>
      <trkpt lat="45.41729" lon="5.84914">
        <ele>633.65</ele>
        <time>2021-10-28T08:07:12Z</time>
      </trkpt>
      <trkpt lat="45.41721" lon="5.84873">
        <ele>633.65</ele>
        <time>2021-10-28T08:07:37Z</time>
      </trkpt>
      <trkpt lat="45.4172" lon="5.84831">
        <ele>632.68</ele>
        <time>2021-10-28T08:08:01Z</time>
      </trkpt>
      <trkpt lat="45.41724" lon="5.84784">
        <ele>632.2</ele>
        <time>2021-10-28T08:08:27Z</time>
      </trkpt>
      <trkpt lat="45.41735" lon="5.84744">
        <ele>632.2</ele>
        <time>2021-10-28T08:08:51Z</time>
      </trkpt>
      <trkpt lat="45.41759" lon="5.84708">
        <ele>632.2</ele>
        <time>2021-10-28T08:09:13Z</time>
      </trkpt>
      <trkpt lat="45.41767" lon="5.84661">
        <ele>631.72</ele>
        <time>2021-10-28T08:09:38Z</time>
      </trkpt>
      <trkpt lat="45.41769" lon="5.84618">
        <ele>632.2</ele>
        <time>2021-10-28T08:10:02Z</time>
      </trkpt>
      <trkpt lat="45.4178" lon="5.84561">
        <ele>636.53</ele>
        <time>2021-10-28T08:10:38Z</time>
      </trkpt>
      <trkpt lat="45.41793" lon="5.84504">
        <ele>638.45</ele>
        <time>2021-10-28T08:11:10Z</time>
      </trkpt>
      <trkpt lat="45.41802" lon="5.84466">
        <ele>638.93</ele>
        <time>2021-10-28T08:11:34Z</time>
      </trkpt>
      <trkpt lat="45.41812" lon="5.84423">
        <ele>638.93</ele>
        <time>2021-10-28T08:11:57Z</time>
      </trkpt>
      <trkpt lat="45.41803" lon="5.84387">
        <ele>636.05</ele>
        <time>2021-10-28T08:12:20Z</time>
      </trkpt>
      <trkpt lat="45.41834" lon="5.84346">
        <ele>630.28</ele>
        <time>2021-10-28T08:12:56Z</time>
      </trkpt>
      <trkpt lat="45.41866" lon="5.84303">
        <ele>624.99</ele>
        <time>2021-10-28T08:13:32Z</time>
      </trkpt>
      <trkpt lat="45.4189" lon="5.8427">
        <ele>619.71</ele>
        <time>2021-10-28T08:14:02Z</time>
      </trkpt>
      <trkpt lat="45.41917" lon="5.84237">
        <ele>616.34</ele>
        <time>2021-10-28T08:14:27Z</time>
      </trkpt>
      <trkpt lat="45.4195" lon="5.84199">
        <ele>617.3</ele>
        <time>2021-10-28T08:14:59Z</time>
      </trkpt>
      <trkpt lat="45.41948" lon="5.84139">
        <ele>621.15</ele>
        <time>2021-10-28T08:15:41Z</time>
      </trkpt>
      <trkpt lat="45.41939" lon="5.841">
        <ele>623.55</ele>
        <time>2021-10-28T08:16:07Z</time>
      </trkpt>
      <trkpt lat="45.4193" lon="5.84057">
        <ele>617.3</ele>
        <time>2021-10-28T08:16:41Z</time>
      </trkpt>
      <trkpt lat="45.41908" lon="5.84028">
        <ele>614.9</ele>
        <time>2021-10-28T08:17:07Z</time>
      </trkpt>
      <trkpt lat="45.41894" lon="5.83986">
        <ele>610.57</ele>
        <time>2021-10-28T08:17:34Z</time>
      </trkpt>
      <trkpt lat="45.4189" lon="5.83938">
        <ele>604.81</ele>
        <time>2021-10-28T08:18:07Z</time>
      </trkpt>
      <trkpt lat="45.42031" lon="5.8379">
        <ele>634.61</ele>
        <time>2021-10-28T08:25:30Z</time>
      </trkpt>
      <trkpt lat="45.42064" lon="5.83741">
        <ele>639.89</ele>
        <time>2021-10-28T08:26:15Z</time>
      </trkpt>
      <trkpt lat="45.42127" lon="5.83636">
        <ele>650.47</ele>
        <time>2021-10-28T08:27:51Z</time>
      </trkpt>
      <trkpt lat="45.42227" lon="5.83522">
        <ele>645.66</ele>
        <time>2021-10-28T08:29:37Z</time>
      </trkpt>
      <trkpt lat="45.42252" lon="5.83495">
        <ele>649.03</ele>
        <time>2021-10-28T08:30:04Z</time>
      </trkpt>
      <trkpt lat="45.42278" lon="5.83467">
        <ele>649.99</ele>
        <time>2021-10-28T08:30:31Z</time>
      </trkpt>
      <trkpt lat="45.42366" lon="5.83373">
        <ele>657.68</ele>
        <time>2021-10-28T08:32:05Z</time>
      </trkpt>
      <trkpt lat="45.42408" lon="5.83329">
        <ele>660.08</ele>
        <time>2021-10-28T08:32:46Z</time>
      </trkpt>
      <trkpt lat="45.42426" lon="5.83265">
        <ele>663.45</ele>
        <time>2021-10-28T08:33:30Z</time>
      </trkpt>
      <trkpt lat="45.42446" lon="5.83229">
        <ele>666.81</ele>
        <time>2021-10-28T08:34:00Z</time>
      </trkpt>
      <trkpt lat="45.4248" lon="5.83215">
        <ele>669.22</ele>
        <time>2021-10-28T08:34:28Z</time>
      </trkpt>
      <trkpt lat="45.42499" lon="5.83186">
        <ele>673.54</ele>
        <time>2021-10-28T08:34:57Z</time>
      </trkpt>
      <trkpt lat="45.42502" lon="5.83151">
        <ele>675.94</ele>
        <time>2021-10-28T08:35:23Z</time>
      </trkpt>
      <trkpt lat="45.4251" lon="5.83112">
        <ele>677.39</ele>
        <time>2021-10-28T08:35:48Z</time>
      </trkpt>
      <trkpt lat="45.42539" lon="5.83103">
        <ele>679.79</ele>
        <time>2021-10-28T08:36:15Z</time>
      </trkpt>
      <trkpt lat="45.42569" lon="5.83095">
        <ele>682.19</ele>
        <time>2021-10-28T08:36:42Z</time>
      </trkpt>
      <trkpt lat="45.42595" lon="5.83077">
        <ele>676.91</ele>
        <time>2021-10-28T08:37:09Z</time>
      </trkpt>
      <trkpt lat="45.42615" lon="5.83087">
        <ele>673.06</ele>
        <time>2021-10-28T08:37:34Z</time>
      </trkpt>
      <trkpt lat="45.42616" lon="5.83127">
        <ele>669.7</ele>
        <time>2021-10-28T08:37:59Z</time>
      </trkpt>
      <trkpt lat="45.42637" lon="5.83145">
        <ele>666.81</ele>
        <time>2021-10-28T08:38:25Z</time>
      </trkpt>
      <trkpt lat="45.42658" lon="5.8311">
        <ele>663.45</ele>
        <time>2021-10-28T08:38:56Z</time>
      </trkpt>
      <trkpt lat="45.42674" lon="5.8307">
        <ele>659.12</ele>
        <time>2021-10-28T08:39:26Z</time>
      </trkpt>
      <trkpt lat="45.42702" lon="5.8305">
        <ele>655.28</ele>
        <time>2021-10-28T08:39:54Z</time>
      </trkpt>
      <trkpt lat="45.42754" lon="5.83028">
        <ele>655.76</ele>
        <time>2021-10-28T08:41:25Z</time>
      </trkpt>
      <trkpt lat="45.42721" lon="5.82991">
        <ele>660.08</ele>
        <time>2021-10-28T08:42:01Z</time>
      </trkpt>
      <trkpt lat="45.42692" lon="5.82971">
        <ele>664.41</ele>
        <time>2021-10-28T08:42:31Z</time>
      </trkpt>
      <trkpt lat="45.42677" lon="5.82936">
        <ele>667.29</ele>
        <time>2021-10-28T08:42:55Z</time>
      </trkpt>
      <trkpt lat="45.42661" lon="5.82904">
        <ele>668.73</ele>
        <time>2021-10-28T08:43:18Z</time>
      </trkpt>
      <trkpt lat="45.42666" lon="5.82868">
        <ele>669.22</ele>
        <time>2021-10-28T08:43:40Z</time>
      </trkpt>
      <trkpt lat="45.42665" lon="5.82828">
        <ele>672.58</ele>
        <time>2021-10-28T08:44:05Z</time>
      </trkpt>
      <trkpt lat="45.42659" lon="5.8279">
        <ele>676.91</ele>
        <time>2021-10-28T08:44:35Z</time>
      </trkpt>
      <trkpt lat="45.42629" lon="5.82777">
        <ele>681.71</ele>
        <time>2021-10-28T08:45:07Z</time>
      </trkpt>
      <trkpt lat="45.42607" lon="5.82773">
        <ele>686.52</ele>
        <time>2021-10-28T08:45:34Z</time>
      </trkpt>
      <trkpt lat="45.42628" lon="5.82753">
        <ele>690.84</ele>
        <time>2021-10-28T08:46:08Z</time>
      </trkpt>
      <trkpt lat="45.42636" lon="5.82722">
        <ele>693.73</ele>
        <time>2021-10-28T08:46:34Z</time>
      </trkpt>
      <trkpt lat="45.42639" lon="5.82684">
        <ele>699.02</ele>
        <time>2021-10-28T08:47:01Z</time>
      </trkpt>
      <trkpt lat="45.42643" lon="5.82641">
        <ele>706.23</ele>
        <time>2021-10-28T08:47:40Z</time>
      </trkpt>
      <trkpt lat="45.42637" lon="5.82598">
        <ele>714.4</ele>
        <time>2021-10-28T08:48:27Z</time>
      </trkpt>
      <trkpt lat="45.42628" lon="5.82552">
        <ele>719.68</ele>
        <time>2021-10-28T08:49:08Z</time>
      </trkpt>
      <trkpt lat="45.42625" lon="5.82511">
        <ele>724.49</ele>
        <time>2021-10-28T08:49:42Z</time>
      </trkpt>
      <trkpt lat="45.42622" lon="5.8247">
        <ele>732.18</ele>
        <time>2021-10-28T08:50:23Z</time>
      </trkpt>
      <trkpt lat="45.42624" lon="5.82436">
        <ele>738.91</ele>
        <time>2021-10-28T08:52:02Z</time>
      </trkpt>
      <trkpt lat="45.42642" lon="5.8241">
        <ele>744.68</ele>
        <time>2021-10-28T08:53:49Z</time>
      </trkpt>
      <trkpt lat="45.42668" lon="5.82403">
        <ele>753.81</ele>
        <time>2021-10-28T08:54:37Z</time>
      </trkpt>
      <trkpt lat="45.42683" lon="5.82433">
        <ele>761.5</ele>
        <time>2021-10-28T08:57:31Z</time>
      </trkpt>
      <trkpt lat="45.42699" lon="5.82465">
        <ele>768.71</ele>
        <time>2021-10-28T08:58:09Z</time>
      </trkpt>
      <trkpt lat="45.42723" lon="5.82451">
        <ele>776.4</ele>
        <time>2021-10-28T08:58:51Z</time>
      </trkpt>
      <trkpt lat="45.42744" lon="5.82426">
        <ele>783.13</ele>
        <time>2021-10-28T08:59:30Z</time>
      </trkpt>
      <trkpt lat="45.42772" lon="5.82407">
        <ele>790.82</ele>
        <time>2021-10-28T09:00:14Z</time>
      </trkpt>
      <trkpt lat="45.42808" lon="5.82467">
        <ele>807.64</ele>
        <time>2021-10-28T09:01:56Z</time>
      </trkpt>
      <trkpt lat="45.42835" lon="5.82486">
        <ele>811.49</ele>
        <time>2021-10-28T09:02:20Z</time>
      </trkpt>
      <trkpt lat="45.42839" lon="5.82464">
        <ele>814.85</ele>
        <time>2021-10-28T09:02:44Z</time>
      </trkpt>
      <trkpt lat="45.42847" lon="5.82431">
        <ele>818.7</ele>
        <time>2021-10-28T09:03:08Z</time>
      </trkpt>
      <trkpt lat="45.42873" lon="5.82407">
        <ele>823.03</ele>
        <time>2021-10-28T09:03:33Z</time>
      </trkpt>
      <trkpt lat="45.42872" lon="5.8244">
        <ele>829.27</ele>
        <time>2021-10-28T09:04:08Z</time>
      </trkpt>
      <trkpt lat="45.42889" lon="5.82444">
        <ele>835.04</ele>
        <time>2021-10-28T09:05:18Z</time>
      </trkpt>
      <trkpt lat="45.42898" lon="5.82417">
        <ele>836</ele>
        <time>2021-10-28T09:07:58Z</time>
      </trkpt>
      <trkpt lat="45.42917" lon="5.82457">
        <ele>839.85</ele>
        <time>2021-10-28T09:09:41Z</time>
      </trkpt>
      <trkpt lat="45.42937" lon="5.82486">
        <ele>838.41</ele>
        <time>2021-10-28T09:10:23Z</time>
      </trkpt>
      <trkpt lat="45.42963" lon="5.82508">
        <ele>838.41</ele>
        <time>2021-10-28T09:10:49Z</time>
      </trkpt>
      <trkpt lat="45.42986" lon="5.82529">
        <ele>840.33</ele>
        <time>2021-10-28T09:11:15Z</time>
      </trkpt>
      <trkpt lat="45.43015" lon="5.82548">
        <ele>840.33</ele>
        <time>2021-10-28T09:11:39Z</time>
      </trkpt>
      <trkpt lat="45.4304" lon="5.82567">
        <ele>838.89</ele>
        <time>2021-10-28T09:12:03Z</time>
      </trkpt>
      <trkpt lat="45.43058" lon="5.82597">
        <ele>836.48</ele>
        <time>2021-10-28T09:12:28Z</time>
      </trkpt>
      <trkpt lat="45.43074" lon="5.82631">
        <ele>832.16</ele>
        <time>2021-10-28T09:12:56Z</time>
      </trkpt>
      <trkpt lat="45.43092" lon="5.82669">
        <ele>828.31</ele>
        <time>2021-10-28T09:13:24Z</time>
      </trkpt>
      <trkpt lat="45.43118" lon="5.82698">
        <ele>826.39</ele>
        <time>2021-10-28T09:13:50Z</time>
      </trkpt>
      <trkpt lat="45.43143" lon="5.82746">
        <ele>824.47</ele>
        <time>2021-10-28T09:14:29Z</time>
      </trkpt>
      <trkpt lat="45.43173" lon="5.8278">
        <ele>823.99</ele>
        <time>2021-10-28T09:15:01Z</time>
      </trkpt>
      <trkpt lat="45.43228" lon="5.82825">
        <ele>817.74</ele>
        <time>2021-10-28T09:16:01Z</time>
      </trkpt>
      <trkpt lat="45.43352" lon="5.82954">
        <ele>807.64</ele>
        <time>2021-10-28T09:18:09Z</time>
      </trkpt>
      <trkpt lat="45.4338" lon="5.83017">
        <ele>803.8</ele>
        <time>2021-10-28T09:18:45Z</time>
      </trkpt>
      <trkpt lat="45.43376" lon="5.83071">
        <ele>801.88</ele>
        <time>2021-10-28T09:19:13Z</time>
      </trkpt>
      <trkpt lat="45.43377" lon="5.83131">
        <ele>798.99</ele>
        <time>2021-10-28T09:19:50Z</time>
      </trkpt>
      <trkpt lat="45.43342" lon="5.83199">
        <ele>800.92</ele>
        <time>2021-10-28T09:20:50Z</time>
      </trkpt>
      <trkpt lat="45.43293" lon="5.83205">
        <ele>808.61</ele>
        <time>2021-10-28T09:21:40Z</time>
      </trkpt>
      <trkpt lat="45.43307" lon="5.83333">
        <ele>838.89</ele>
        <time>2021-10-28T09:24:42Z</time>
      </trkpt>
      <trkpt lat="45.43321" lon="5.83358">
        <ele>845.14</ele>
        <time>2021-10-28T09:27:44Z</time>
      </trkpt>
      <trkpt lat="45.43368" lon="5.83417">
        <ele>857.15</ele>
        <time>2021-10-28T09:29:14Z</time>
      </trkpt>
      <trkpt lat="45.43388" lon="5.83453">
        <ele>861.48</ele>
        <time>2021-10-28T09:30:36Z</time>
      </trkpt>
      <trkpt lat="45.43408" lon="5.83475">
        <ele>862.92</ele>
        <time>2021-10-28T09:33:34Z</time>
      </trkpt>
      <trkpt lat="45.43435" lon="5.83495">
        <ele>865.8</ele>
        <time>2021-10-28T09:34:00Z</time>
      </trkpt>
      <trkpt lat="45.43465" lon="5.83506">
        <ele>869.65</ele>
        <time>2021-10-28T09:34:28Z</time>
      </trkpt>
      <trkpt lat="45.43493" lon="5.8351">
        <ele>873.5</ele>
        <time>2021-10-28T09:35:01Z</time>
      </trkpt>
      <trkpt lat="45.43523" lon="5.83515">
        <ele>878.3</ele>
        <time>2021-10-28T09:35:37Z</time>
      </trkpt>
      <trkpt lat="45.43554" lon="5.83518">
        <ele>883.11</ele>
        <time>2021-10-28T09:36:15Z</time>
      </trkpt>
      <trkpt lat="45.43583" lon="5.83524">
        <ele>887.43</ele>
        <time>2021-10-28T09:36:50Z</time>
      </trkpt>
      <trkpt lat="45.43615" lon="5.83548">
        <ele>893.2</ele>
        <time>2021-10-28T09:37:33Z</time>
      </trkpt>
      <trkpt lat="45.43658" lon="5.83579">
        <ele>901.85</ele>
        <time>2021-10-28T09:38:33Z</time>
      </trkpt>
      <trkpt lat="45.43696" lon="5.83604">
        <ele>908.58</ele>
        <time>2021-10-28T09:39:23Z</time>
      </trkpt>
      <trkpt lat="45.43724" lon="5.83628">
        <ele>910.99</ele>
        <time>2021-10-28T09:39:56Z</time>
      </trkpt>
      <trkpt lat="45.43759" lon="5.83641">
        <ele>917.24</ele>
        <time>2021-10-28T09:40:42Z</time>
      </trkpt>
      <trkpt lat="45.43777" lon="5.83651">
        <ele>920.6</ele>
        <time>2021-10-28T09:41:20Z</time>
      </trkpt>
      <trkpt lat="45.438" lon="5.83671">
        <ele>921.08</ele>
        <time>2021-10-28T09:41:49Z</time>
      </trkpt>
      <trkpt lat="45.43828" lon="5.83675">
        <ele>922.52</ele>
        <time>2021-10-28T09:42:14Z</time>
      </trkpt>
      <trkpt lat="45.43854" lon="5.83697">
        <ele>923</ele>
        <time>2021-10-28T09:42:39Z</time>
      </trkpt>
      <trkpt lat="45.43879" lon="5.83715">
        <ele>924.45</ele>
        <time>2021-10-28T09:43:03Z</time>
      </trkpt>
      <trkpt lat="45.43907" lon="5.83738">
        <ele>927.33</ele>
        <time>2021-10-28T09:43:34Z</time>
      </trkpt>
      <trkpt lat="45.43937" lon="5.8377">
        <ele>930.21</ele>
        <time>2021-10-28T09:44:09Z</time>
      </trkpt>
      <trkpt lat="45.43966" lon="5.83805">
        <ele>935.02</ele>
        <time>2021-10-28T09:44:48Z</time>
      </trkpt>
      <trkpt lat="45.43991" lon="5.8383">
        <ele>939.83</ele>
        <time>2021-10-28T09:45:19Z</time>
      </trkpt>
      <trkpt lat="45.44015" lon="5.83853">
        <ele>944.15</ele>
        <time>2021-10-28T09:45:55Z</time>
      </trkpt>
      <trkpt lat="45.44042" lon="5.83879">
        <ele>949.44</ele>
        <time>2021-10-28T09:46:34Z</time>
      </trkpt>
      <trkpt lat="45.44074" lon="5.83907">
        <ele>957.61</ele>
        <time>2021-10-28T09:47:27Z</time>
      </trkpt>
      <trkpt lat="45.44092" lon="5.83941">
        <ele>965.78</ele>
        <time>2021-10-28T09:48:17Z</time>
      </trkpt>
      <trkpt lat="45.44101" lon="5.83977">
        <ele>971.07</ele>
        <time>2021-10-28T09:48:56Z</time>
      </trkpt>
      <trkpt lat="45.4413" lon="5.83977">
        <ele>971.07</ele>
        <time>2021-10-28T09:49:25Z</time>
      </trkpt>
      <trkpt lat="45.44161" lon="5.83978">
        <ele>972.51</ele>
        <time>2021-10-28T09:49:56Z</time>
      </trkpt>
      <trkpt lat="45.44189" lon="5.83981">
        <ele>972.99</ele>
        <time>2021-10-28T09:50:24Z</time>
      </trkpt>
      <trkpt lat="45.4422" lon="5.83979">
        <ele>972.99</ele>
        <time>2021-10-28T09:50:52Z</time>
      </trkpt>
      <trkpt lat="45.44249" lon="5.83982">
        <ele>974.91</ele>
        <time>2021-10-28T09:51:21Z</time>
      </trkpt>
      <trkpt lat="45.44277" lon="5.83973">
        <ele>976.36</ele>
        <time>2021-10-28T09:51:49Z</time>
      </trkpt>
      <trkpt lat="45.44318" lon="5.83999">
        <ele>980.68</ele>
        <time>2021-10-28T09:52:36Z</time>
      </trkpt>
      <trkpt lat="45.44365" lon="5.84026">
        <ele>985.01</ele>
        <time>2021-10-28T09:53:26Z</time>
      </trkpt>
      <trkpt lat="45.44409" lon="5.8404">
        <ele>988.37</ele>
        <time>2021-10-28T09:54:12Z</time>
      </trkpt>
      <trkpt lat="45.44444" lon="5.84057">
        <ele>992.22</ele>
        <time>2021-10-28T09:54:48Z</time>
      </trkpt>
      <trkpt lat="45.44478" lon="5.84077">
        <ele>994.62</ele>
        <time>2021-10-28T09:55:23Z</time>
      </trkpt>
      <trkpt lat="45.44508" lon="5.84087">
        <ele>994.62</ele>
        <time>2021-10-28T09:55:50Z</time>
      </trkpt>
      <trkpt lat="45.44542" lon="5.84093">
        <ele>997.02</ele>
        <time>2021-10-28T09:56:22Z</time>
      </trkpt>
      <trkpt lat="45.44571" lon="5.84098">
        <ele>998.47</ele>
        <time>2021-10-28T09:56:50Z</time>
      </trkpt>
      <trkpt lat="45.44598" lon="5.84095">
        <ele>995.58</ele>
        <time>2021-10-28T09:57:16Z</time>
      </trkpt>
      <trkpt lat="45.4463" lon="5.84096">
        <ele>992.7</ele>
        <time>2021-10-28T09:59:19Z</time>
      </trkpt>
      <trkpt lat="45.44661" lon="5.84114">
        <ele>996.06</ele>
        <time>2021-10-28T09:59:52Z</time>
      </trkpt>
      <trkpt lat="45.44698" lon="5.84162">
        <ele>1002.79</ele>
        <time>2021-10-28T10:00:45Z</time>
      </trkpt>
      <trkpt lat="45.44756" lon="5.84231">
        <ele>1017.21</ele>
        <time>2021-10-28T10:02:33Z</time>
      </trkpt>
      <trkpt lat="45.44823" lon="5.84294">
        <ele>1022.98</ele>
        <time>2021-10-28T10:03:47Z</time>
      </trkpt>
      <trkpt lat="45.44881" lon="5.84332">
        <ele>1030.19</ele>
        <time>2021-10-28T10:04:56Z</time>
      </trkpt>
      <trkpt lat="45.4491" lon="5.84351">
        <ele>1035</ele>
        <time>2021-10-28T10:05:33Z</time>
      </trkpt>
      <trkpt lat="45.44938" lon="5.84374">
        <ele>1039.32</ele>
        <time>2021-10-28T10:06:09Z</time>
      </trkpt>
      <trkpt lat="45.44965" lon="5.84395">
        <ele>1043.65</ele>
        <time>2021-10-28T10:06:43Z</time>
      </trkpt>
      <trkpt lat="45.44985" lon="5.84453">
        <ele>1050.86</ele>
        <time>2021-10-28T10:07:38Z</time>
      </trkpt>
      <trkpt lat="45.44997" lon="5.84488">
        <ele>1055.67</ele>
        <time>2021-10-28T10:08:17Z</time>
      </trkpt>
      <trkpt lat="45.45019" lon="5.84518">
        <ele>1057.59</ele>
        <time>2021-10-28T10:08:48Z</time>
      </trkpt>
      <trkpt lat="45.45046" lon="5.84545">
        <ele>1060.47</ele>
        <time>2021-10-28T10:10:07Z</time>
      </trkpt>
      <trkpt lat="45.45079" lon="5.84576">
        <ele>1063.36</ele>
        <time>2021-10-28T10:10:42Z</time>
      </trkpt>
      <trkpt lat="45.45103" lon="5.84603">
        <ele>1066.24</ele>
        <time>2021-10-28T10:11:10Z</time>
      </trkpt>
      <trkpt lat="45.45125" lon="5.84632">
        <ele>1069.12</ele>
        <time>2021-10-28T10:11:39Z</time>
      </trkpt>
      <trkpt lat="45.45158" lon="5.84642">
        <ele>1072.01</ele>
        <time>2021-10-28T10:12:11Z</time>
      </trkpt>
      <trkpt lat="45.45179" lon="5.84624">
        <ele>1073.93</ele>
        <time>2021-10-28T10:12:42Z</time>
      </trkpt>
      <trkpt lat="45.4536" lon="5.85002">
        <ele>1108.06</ele>
        <time>2021-10-28T10:18:34Z</time>
      </trkpt>
      <trkpt lat="45.45258" lon="5.85475">
        <ele>1141.7</ele>
        <time>2021-10-28T10:25:15Z</time>
      </trkpt>
      <trkpt lat="45.45256" lon="5.85543">
        <ele>1145.07</ele>
        <time>2021-10-28T10:25:57Z</time>
      </trkpt>
      <trkpt lat="45.45271" lon="5.85647">
        <ele>1149.39</ele>
        <time>2021-10-28T10:27:07Z</time>
      </trkpt>
      <trkpt lat="45.45285" lon="5.85704">
        <ele>1151.8</ele>
        <time>2021-10-28T10:27:45Z</time>
      </trkpt>
      <trkpt lat="45.4531" lon="5.85749">
        <ele>1153.72</ele>
        <time>2021-10-28T10:28:17Z</time>
      </trkpt>
      <trkpt lat="45.45329" lon="5.85784">
        <ele>1156.12</ele>
        <time>2021-10-28T10:28:46Z</time>
      </trkpt>
      <trkpt lat="45.45353" lon="5.85804">
        <ele>1157.56</ele>
        <time>2021-10-28T10:29:12Z</time>
      </trkpt>
      <trkpt lat="45.45376" lon="5.85816">
        <ele>1158.53</ele>
        <time>2021-10-28T10:29:42Z</time>
      </trkpt>
      <trkpt lat="45.454" lon="5.85829">
        <ele>1159.97</ele>
        <time>2021-10-28T10:30:36Z</time>
      </trkpt>
      <trkpt lat="45.45406" lon="5.85851">
        <ele>1164.29</ele>
        <time>2021-10-28T11:00:41Z</time>
      </trkpt>
      <trkpt lat="45.45425" lon="5.85874">
        <ele>1165.74</ele>
        <time>2021-10-28T11:02:41Z</time>
      </trkpt>
      <trkpt lat="45.45471" lon="5.85885">
        <ele>1169.58</ele>
        <time>2021-10-28T11:04:02Z</time>
      </trkpt>
      <trkpt lat="45.45497" lon="5.85892">
        <ele>1170.54</ele>
        <time>2021-10-28T11:04:37Z</time>
      </trkpt>
      <trkpt lat="45.45523" lon="5.85895">
        <ele>1171.98</ele>
        <time>2021-10-28T11:05:05Z</time>
      </trkpt>
      <trkpt lat="45.45546" lon="5.85889">
        <ele>1172.95</ele>
        <time>2021-10-28T11:05:32Z</time>
      </trkpt>
      <trkpt lat="45.4557" lon="5.85879">
        <ele>1173.43</ele>
        <time>2021-10-28T11:05:56Z</time>
      </trkpt>
      <trkpt lat="45.45593" lon="5.85866">
        <ele>1174.39</ele>
        <time>2021-10-28T11:06:20Z</time>
      </trkpt>
      <trkpt lat="45.4562" lon="5.85844">
        <ele>1176.79</ele>
        <time>2021-10-28T11:06:46Z</time>
      </trkpt>
      <trkpt lat="45.45647" lon="5.85815">
        <ele>1180.16</ele>
        <time>2021-10-28T11:07:15Z</time>
      </trkpt>
      <trkpt lat="45.45674" lon="5.85798">
        <ele>1183.04</ele>
        <time>2021-10-28T11:07:45Z</time>
      </trkpt>
      <trkpt lat="45.45699" lon="5.85778">
        <ele>1185.44</ele>
        <time>2021-10-28T11:08:40Z</time>
      </trkpt>
      <trkpt lat="45.45728" lon="5.85774">
        <ele>1186.88</ele>
        <time>2021-10-28T11:09:11Z</time>
      </trkpt>
      <trkpt lat="45.45756" lon="5.85776">
        <ele>1188.81</ele>
        <time>2021-10-28T11:09:41Z</time>
      </trkpt>
      <trkpt lat="45.45786" lon="5.85783">
        <ele>1190.73</ele>
        <time>2021-10-28T11:10:11Z</time>
      </trkpt>
      <trkpt lat="45.45812" lon="5.85791">
        <ele>1191.21</ele>
        <time>2021-10-28T11:10:49Z</time>
      </trkpt>
      <trkpt lat="45.45838" lon="5.85798">
        <ele>1192.65</ele>
        <time>2021-10-28T11:11:17Z</time>
      </trkpt>
      <trkpt lat="45.45865" lon="5.85804">
        <ele>1194.09</ele>
        <time>2021-10-28T11:11:40Z</time>
      </trkpt>
      <trkpt lat="45.45891" lon="5.85808">
        <ele>1194.58</ele>
        <time>2021-10-28T11:12:03Z</time>
      </trkpt>
      <trkpt lat="45.45917" lon="5.85809">
        <ele>1194.58</ele>
        <time>2021-10-28T11:12:27Z</time>
      </trkpt>
      <trkpt lat="45.45946" lon="5.85813">
        <ele>1195.54</ele>
        <time>2021-10-28T11:12:52Z</time>
      </trkpt>
      <trkpt lat="45.45976" lon="5.85821">
        <ele>1195.54</ele>
        <time>2021-10-28T11:13:16Z</time>
      </trkpt>
      <trkpt lat="45.46002" lon="5.85835">
        <ele>1196.98</ele>
        <time>2021-10-28T11:13:42Z</time>
      </trkpt>
      <trkpt lat="45.46029" lon="5.85855">
        <ele>1197.94</ele>
        <time>2021-10-28T11:14:05Z</time>
      </trkpt>
      <trkpt lat="45.46054" lon="5.85869">
        <ele>1199.38</ele>
        <time>2021-10-28T11:14:28Z</time>
      </trkpt>
      <trkpt lat="45.46079" lon="5.85882">
        <ele>1200.34</ele>
        <time>2021-10-28T11:14:50Z</time>
      </trkpt>
      <trkpt lat="45.46105" lon="5.85887">
        <ele>1200.82</ele>
        <time>2021-10-28T11:15:13Z</time>
      </trkpt>
      <trkpt lat="45.46132" lon="5.85885">
        <ele>1201.3</ele>
        <time>2021-10-28T11:15:35Z</time>
      </trkpt>
      <trkpt lat="45.46159" lon="5.85875">
        <ele>1201.79</ele>
        <time>2021-10-28T11:15:59Z</time>
      </trkpt>
      <trkpt lat="45.46189" lon="5.85876">
        <ele>1202.75</ele>
        <time>2021-10-28T11:16:24Z</time>
      </trkpt>
      <trkpt lat="45.46214" lon="5.859">
        <ele>1204.19</ele>
        <time>2021-10-28T11:16:48Z</time>
      </trkpt>
      <trkpt lat="45.46239" lon="5.85922">
        <ele>1204.67</ele>
        <time>2021-10-28T11:17:11Z</time>
      </trkpt>
      <trkpt lat="45.46262" lon="5.85944">
        <ele>1205.15</ele>
        <time>2021-10-28T11:18:03Z</time>
      </trkpt>
      <trkpt lat="45.46281" lon="5.85974">
        <ele>1201.79</ele>
        <time>2021-10-28T11:18:26Z</time>
      </trkpt>
      <trkpt lat="45.46296" lon="5.86008">
        <ele>1198.9</ele>
        <time>2021-10-28T11:18:49Z</time>
      </trkpt>
      <trkpt lat="45.46312" lon="5.86041">
        <ele>1197.46</ele>
        <time>2021-10-28T11:19:11Z</time>
      </trkpt>
      <trkpt lat="45.46314" lon="5.86077">
        <ele>1196.5</ele>
        <time>2021-10-28T11:19:33Z</time>
      </trkpt>
      <trkpt lat="45.46312" lon="5.86116">
        <ele>1196.5</ele>
        <time>2021-10-28T11:19:56Z</time>
      </trkpt>
      <trkpt lat="45.46318" lon="5.86152">
        <ele>1196.5</ele>
        <time>2021-10-28T11:20:18Z</time>
      </trkpt>
      <trkpt lat="45.46335" lon="5.86181">
        <ele>1195.06</ele>
        <time>2021-10-28T11:20:42Z</time>
      </trkpt>
      <trkpt lat="45.46356" lon="5.86212">
        <ele>1192.17</ele>
        <time>2021-10-28T11:21:06Z</time>
      </trkpt>
      <trkpt lat="45.46381" lon="5.86234">
        <ele>1189.77</ele>
        <time>2021-10-28T11:21:29Z</time>
      </trkpt>
      <trkpt lat="45.46409" lon="5.86244">
        <ele>1187.85</ele>
        <time>2021-10-28T11:21:53Z</time>
      </trkpt>
      <trkpt lat="45.46432" lon="5.8625">
        <ele>1185.92</ele>
        <time>2021-10-28T11:22:17Z</time>
      </trkpt>
      <trkpt lat="45.46457" lon="5.86253">
        <ele>1183.04</ele>
        <time>2021-10-28T11:22:41Z</time>
      </trkpt>
      <trkpt lat="45.46486" lon="5.86262">
        <ele>1180.64</ele>
        <time>2021-10-28T11:23:05Z</time>
      </trkpt>
      <trkpt lat="45.46513" lon="5.86281">
        <ele>1179.19</ele>
        <time>2021-10-28T11:23:29Z</time>
      </trkpt>
      <trkpt lat="45.46535" lon="5.86306">
        <ele>1176.31</ele>
        <time>2021-10-28T11:23:53Z</time>
      </trkpt>
      <trkpt lat="45.46557" lon="5.86333">
        <ele>1173.43</ele>
        <time>2021-10-28T11:24:18Z</time>
      </trkpt>
      <trkpt lat="45.4657" lon="5.86362">
        <ele>1170.06</ele>
        <time>2021-10-28T11:24:43Z</time>
      </trkpt>
      <trkpt lat="45.46547" lon="5.86381">
        <ele>1168.62</ele>
        <time>2021-10-28T11:25:07Z</time>
      </trkpt>
      <trkpt lat="45.46519" lon="5.86394">
        <ele>1167.66</ele>
        <time>2021-10-28T11:25:29Z</time>
      </trkpt>
      <trkpt lat="45.4649" lon="5.86405">
        <ele>1166.7</ele>
        <time>2021-10-28T11:25:53Z</time>
      </trkpt>
      <trkpt lat="45.46462" lon="5.86414">
        <ele>1166.22</ele>
        <time>2021-10-28T11:26:17Z</time>
      </trkpt>
      <trkpt lat="45.46437" lon="5.8643">
        <ele>1164.77</ele>
        <time>2021-10-28T11:26:40Z</time>
      </trkpt>
      <trkpt lat="45.46417" lon="5.86458">
        <ele>1161.41</ele>
        <time>2021-10-28T11:27:04Z</time>
      </trkpt>
      <trkpt lat="45.46398" lon="5.86483">
        <ele>1159.97</ele>
        <time>2021-10-28T11:27:25Z</time>
      </trkpt>
      <trkpt lat="45.46375" lon="5.86504">
        <ele>1158.05</ele>
        <time>2021-10-28T11:27:49Z</time>
      </trkpt>
      <trkpt lat="45.46354" lon="5.86525">
        <ele>1155.16</ele>
        <time>2021-10-28T11:28:12Z</time>
      </trkpt>
      <trkpt lat="45.46332" lon="5.86542">
        <ele>1153.24</ele>
        <time>2021-10-28T11:28:36Z</time>
      </trkpt>
      <trkpt lat="45.46304" lon="5.86563">
        <ele>1150.35</ele>
        <time>2021-10-28T11:29:00Z</time>
      </trkpt>
      <trkpt lat="45.4628" lon="5.86586">
        <ele>1146.99</ele>
        <time>2021-10-28T11:29:24Z</time>
      </trkpt>
      <trkpt lat="45.46251" lon="5.86607">
        <ele>1143.63</ele>
        <time>2021-10-28T11:29:47Z</time>
      </trkpt>
      <trkpt lat="45.46222" lon="5.86618">
        <ele>1139.78</ele>
        <time>2021-10-28T11:30:12Z</time>
      </trkpt>
      <trkpt lat="45.46193" lon="5.86615">
        <ele>1135.45</ele>
        <time>2021-10-28T11:30:37Z</time>
      </trkpt>
      <trkpt lat="45.46162" lon="5.86608">
        <ele>1131.61</ele>
        <time>2021-10-28T11:31:02Z</time>
      </trkpt>
      <trkpt lat="45.46134" lon="5.866">
        <ele>1128.24</ele>
        <time>2021-10-28T11:31:27Z</time>
      </trkpt>
      <trkpt lat="45.46105" lon="5.86597">
        <ele>1124.88</ele>
        <time>2021-10-28T11:31:52Z</time>
      </trkpt>
      <trkpt lat="45.46078" lon="5.86585">
        <ele>1123.44</ele>
        <time>2021-10-28T11:32:18Z</time>
      </trkpt>
      <trkpt lat="45.46048" lon="5.86586">
        <ele>1122.96</ele>
        <time>2021-10-28T11:32:47Z</time>
      </trkpt>
      <trkpt lat="45.46025" lon="5.86607">
        <ele>1125.36</ele>
        <time>2021-10-28T11:33:13Z</time>
      </trkpt>
      <trkpt lat="45.46002" lon="5.86626">
        <ele>1123.92</ele>
        <time>2021-10-28T11:33:35Z</time>
      </trkpt>
      <trkpt lat="45.45969" lon="5.86651">
        <ele>1122</ele>
        <time>2021-10-28T11:34:01Z</time>
      </trkpt>
      <trkpt lat="45.45936" lon="5.86668">
        <ele>1120.07</ele>
        <time>2021-10-28T11:34:30Z</time>
      </trkpt>
      <trkpt lat="45.45915" lon="5.86697">
        <ele>1116.71</ele>
        <time>2021-10-28T11:34:57Z</time>
      </trkpt>
      <trkpt lat="45.45891" lon="5.86724">
        <ele>1114.79</ele>
        <time>2021-10-28T11:35:22Z</time>
      </trkpt>
      <trkpt lat="45.45867" lon="5.86737">
        <ele>1110.94</ele>
        <time>2021-10-28T11:35:50Z</time>
      </trkpt>
      <trkpt lat="45.45843" lon="5.86752">
        <ele>1105.65</ele>
        <time>2021-10-28T11:36:19Z</time>
      </trkpt>
      <trkpt lat="45.45809" lon="5.86779">
        <ele>1099.89</ele>
        <time>2021-10-28T11:37:59Z</time>
      </trkpt>
      <trkpt lat="45.4579" lon="5.86794">
        <ele>1092.68</ele>
        <time>2021-10-28T11:38:30Z</time>
      </trkpt>
      <trkpt lat="45.45772" lon="5.8682">
        <ele>1083.54</ele>
        <time>2021-10-28T11:39:07Z</time>
      </trkpt>
      <trkpt lat="45.45767" lon="5.8679">
        <ele>1075.85</ele>
        <time>2021-10-28T11:39:49Z</time>
      </trkpt>
      <trkpt lat="45.45759" lon="5.86766">
        <ele>1067.68</ele>
        <time>2021-10-28T11:40:28Z</time>
      </trkpt>
      <trkpt lat="45.45729" lon="5.86794">
        <ele>1062.87</ele>
        <time>2021-10-28T11:41:04Z</time>
      </trkpt>
      <trkpt lat="45.45694" lon="5.86801">
        <ele>1058.07</ele>
        <time>2021-10-28T11:41:40Z</time>
      </trkpt>
      <trkpt lat="45.45655" lon="5.86827">
        <ele>1049.42</ele>
        <time>2021-10-28T11:42:29Z</time>
      </trkpt>
      <trkpt lat="45.45674" lon="5.87025">
        <ele>992.7</ele>
        <time>2021-10-28T11:47:28Z</time>
      </trkpt>
      <trkpt lat="45.45488" lon="5.87208">
        <ele>949.44</ele>
        <time>2021-10-28T11:59:23Z</time>
      </trkpt>
      <trkpt lat="45.45366" lon="5.87241">
        <ele>922.04</ele>
        <time>2021-10-28T12:01:50Z</time>
      </trkpt>
      <trkpt lat="45.45317" lon="5.8728">
        <ele>909.54</ele>
        <time>2021-10-28T12:03:02Z</time>
      </trkpt>
      <trkpt lat="45.45286" lon="5.87313">
        <ele>905.7</ele>
        <time>2021-10-28T12:03:35Z</time>
      </trkpt>
      <trkpt lat="45.45263" lon="5.87344">
        <ele>904.74</ele>
        <time>2021-10-28T12:04:03Z</time>
      </trkpt>
      <trkpt lat="45.45238" lon="5.87374">
        <ele>898.97</ele>
        <time>2021-10-28T12:04:37Z</time>
      </trkpt>
      <trkpt lat="45.45212" lon="5.87395">
        <ele>896.57</ele>
        <time>2021-10-28T12:05:08Z</time>
      </trkpt>
      <trkpt lat="45.45187" lon="5.8742">
        <ele>893.2</ele>
        <time>2021-10-28T12:05:35Z</time>
      </trkpt>
      <trkpt lat="45.45166" lon="5.87453">
        <ele>888.88</ele>
        <time>2021-10-28T12:06:05Z</time>
      </trkpt>
      <trkpt lat="45.45166" lon="5.87496">
        <ele>883.59</ele>
        <time>2021-10-28T12:06:41Z</time>
      </trkpt>
      <trkpt lat="45.45175" lon="5.87538">
        <ele>878.78</ele>
        <time>2021-10-28T12:07:11Z</time>
      </trkpt>
      <trkpt lat="45.45187" lon="5.87576">
        <ele>876.38</ele>
        <time>2021-10-28T12:07:38Z</time>
      </trkpt>
      <trkpt lat="45.4519" lon="5.87618">
        <ele>873.01</ele>
        <time>2021-10-28T12:08:09Z</time>
      </trkpt>
      <trkpt lat="45.45195" lon="5.87664">
        <ele>871.57</ele>
        <time>2021-10-28T12:08:40Z</time>
      </trkpt>
      <trkpt lat="45.45197" lon="5.87706">
        <ele>869.65</ele>
        <time>2021-10-28T12:09:00Z</time>
      </trkpt>
      <trkpt lat="45.45198" lon="5.8775">
        <ele>867.25</ele>
        <time>2021-10-28T12:09:22Z</time>
      </trkpt>
      <trkpt lat="45.45203" lon="5.87789">
        <ele>866.29</ele>
        <time>2021-10-28T12:09:47Z</time>
      </trkpt>
      <trkpt lat="45.45222" lon="5.87821">
        <ele>865.32</ele>
        <time>2021-10-28T12:10:31Z</time>
      </trkpt>
      <trkpt lat="45.4524" lon="5.87852">
        <ele>863.88</ele>
        <time>2021-10-28T12:10:57Z</time>
      </trkpt>
      <trkpt lat="45.45262" lon="5.87886">
        <ele>861.96</ele>
        <time>2021-10-28T12:11:23Z</time>
      </trkpt>
      <trkpt lat="45.45274" lon="5.87924">
        <ele>861</ele>
        <time>2021-10-28T12:11:48Z</time>
      </trkpt>
      <trkpt lat="45.45278" lon="5.87966">
        <ele>859.56</ele>
        <time>2021-10-28T12:12:12Z</time>
      </trkpt>
      <trkpt lat="45.45269" lon="5.88009">
        <ele>857.15</ele>
        <time>2021-10-28T12:12:39Z</time>
      </trkpt>
      <trkpt lat="45.45266" lon="5.88055">
        <ele>855.23</ele>
        <time>2021-10-28T12:13:05Z</time>
      </trkpt>
      <trkpt lat="45.45266" lon="5.88097">
        <ele>852.83</ele>
        <time>2021-10-28T12:13:32Z</time>
      </trkpt>
      <trkpt lat="45.4525" lon="5.88125">
        <ele>847.54</ele>
        <time>2021-10-28T12:14:19Z</time>
      </trkpt>
      <trkpt lat="45.45241" lon="5.88147">
        <ele>838.89</ele>
        <time>2021-10-28T12:15:03Z</time>
      </trkpt>
      <trkpt lat="45.45256" lon="5.88181">
        <ele>832.16</ele>
        <time>2021-10-28T12:15:35Z</time>
      </trkpt>
      <trkpt lat="45.4527" lon="5.88219">
        <ele>829.76</ele>
        <time>2021-10-28T12:16:02Z</time>
      </trkpt>
      <trkpt lat="45.4527" lon="5.88254">
        <ele>829.76</ele>
        <time>2021-10-28T12:16:47Z</time>
      </trkpt>
      <trkpt lat="45.45261" lon="5.88291">
        <ele>829.76</ele>
        <time>2021-10-28T12:17:13Z</time>
      </trkpt>
      <trkpt lat="45.45248" lon="5.88332">
        <ele>830.72</ele>
        <time>2021-10-28T12:17:45Z</time>
      </trkpt>
      <trkpt lat="45.45222" lon="5.88338">
        <ele>833.12</ele>
        <time>2021-10-28T12:18:14Z</time>
      </trkpt>
      <trkpt lat="45.452" lon="5.88318">
        <ele>833.12</ele>
        <time>2021-10-28T12:18:36Z</time>
      </trkpt>
      <trkpt lat="45.45172" lon="5.88311">
        <ele>831.68</ele>
        <time>2021-10-28T12:18:59Z</time>
      </trkpt>
      <trkpt lat="45.45145" lon="5.88317">
        <ele>831.68</ele>
        <time>2021-10-28T12:19:24Z</time>
      </trkpt>
      <trkpt lat="45.45117" lon="5.8833">
        <ele>834.56</ele>
        <time>2021-10-28T12:19:50Z</time>
      </trkpt>
      <trkpt lat="45.45094" lon="5.88312">
        <ele>834.08</ele>
        <time>2021-10-28T12:20:41Z</time>
      </trkpt>
      <trkpt lat="45.45068" lon="5.88298">
        <ele>832.16</ele>
        <time>2021-10-28T12:21:07Z</time>
      </trkpt>
      <trkpt lat="45.45039" lon="5.88312">
        <ele>830.24</ele>
        <time>2021-10-28T12:21:34Z</time>
      </trkpt>
      <trkpt lat="45.45029" lon="5.88273">
        <ele>824.95</ele>
        <time>2021-10-28T12:22:10Z</time>
      </trkpt>
      <trkpt lat="45.45028" lon="5.88232">
        <ele>823.03</ele>
        <time>2021-10-28T12:22:35Z</time>
      </trkpt>
      <trkpt lat="45.45032" lon="5.88186">
        <ele>821.1</ele>
        <time>2021-10-28T12:23:03Z</time>
      </trkpt>
      <trkpt lat="45.45026" lon="5.88147">
        <ele>820.62</ele>
        <time>2021-10-28T12:23:30Z</time>
      </trkpt>
      <trkpt lat="45.44999" lon="5.88132">
        <ele>818.7</ele>
        <time>2021-10-28T12:23:53Z</time>
      </trkpt>
      <trkpt lat="45.44972" lon="5.88122">
        <ele>818.7</ele>
        <time>2021-10-28T12:24:16Z</time>
      </trkpt>
      <trkpt lat="45.4498" lon="5.88122">
        <ele>818.7</ele>
        <time>2021-10-28T12:25:07Z</time>
      </trkpt>
      <trkpt lat="45.45011" lon="5.88135">
        <ele>819.66</ele>
        <time>2021-10-28T12:25:35Z</time>
      </trkpt>
      <trkpt lat="45.45036" lon="5.88155">
        <ele>820.62</ele>
        <time>2021-10-28T12:26:06Z</time>
      </trkpt>
      <trkpt lat="45.45033" lon="5.88193">
        <ele>820.62</ele>
        <time>2021-10-28T12:26:38Z</time>
      </trkpt>
      <trkpt lat="45.45028" lon="5.88237">
        <ele>822.06</ele>
        <time>2021-10-28T12:27:09Z</time>
      </trkpt>
      <trkpt lat="45.45024" lon="5.88213">
        <ele>820.62</ele>
        <time>2021-10-28T12:27:42Z</time>
      </trkpt>
      <trkpt lat="45.45011" lon="5.8816">
        <ele>818.22</ele>
        <time>2021-10-28T12:28:57Z</time>
      </trkpt>
      <trkpt lat="45.44978" lon="5.88145">
        <ele>817.74</ele>
        <time>2021-10-28T12:29:35Z</time>
      </trkpt>
      <trkpt lat="45.44941" lon="5.88145">
        <ele>816.78</ele>
        <time>2021-10-28T12:30:08Z</time>
      </trkpt>
      <trkpt lat="45.44864" lon="5.88097">
        <ele>818.22</ele>
        <time>2021-10-28T12:31:51Z</time>
      </trkpt>
      <trkpt lat="45.44843" lon="5.88032">
        <ele>814.37</ele>
        <time>2021-10-28T12:32:53Z</time>
      </trkpt>
      <trkpt lat="45.44829" lon="5.87985">
        <ele>813.89</ele>
        <time>2021-10-28T12:33:26Z</time>
      </trkpt>
      <trkpt lat="45.44803" lon="5.87953">
        <ele>812.93</ele>
        <time>2021-10-28T12:33:59Z</time>
      </trkpt>
      <trkpt lat="45.44792" lon="5.87908">
        <ele>813.41</ele>
        <time>2021-10-28T12:34:35Z</time>
      </trkpt>
      <trkpt lat="45.44778" lon="5.87861">
        <ele>814.37</ele>
        <time>2021-10-28T12:35:11Z</time>
      </trkpt>
      <trkpt lat="45.4473" lon="5.87842">
        <ele>803.32</ele>
        <time>2021-10-28T12:36:27Z</time>
      </trkpt>
      <trkpt lat="45.44693" lon="5.87792">
        <ele>810.53</ele>
        <time>2021-10-28T12:41:00Z</time>
      </trkpt>
      <trkpt lat="45.44672" lon="5.87759">
        <ele>815.34</ele>
        <time>2021-10-28T12:41:32Z</time>
      </trkpt>
      <trkpt lat="45.44681" lon="5.8774">
        <ele>819.18</ele>
        <time>2021-10-28T12:42:37Z</time>
      </trkpt>
      <trkpt lat="45.44698" lon="5.87711">
        <ele>826.39</ele>
        <time>2021-10-28T12:43:34Z</time>
      </trkpt>
      <trkpt lat="45.4466" lon="5.87702">
        <ele>832.64</ele>
        <time>2021-10-28T12:44:12Z</time>
      </trkpt>
      <trkpt lat="45.44632" lon="5.87711">
        <ele>831.2</ele>
        <time>2021-10-28T12:44:45Z</time>
      </trkpt>
      <trkpt lat="45.44598" lon="5.87653">
        <ele>834.08</ele>
        <time>2021-10-28T12:45:36Z</time>
      </trkpt>
      <trkpt lat="45.44533" lon="5.87551">
        <ele>843.69</ele>
        <time>2021-10-28T12:47:38Z</time>
      </trkpt>
      <trkpt lat="45.44488" lon="5.87563">
        <ele>839.37</ele>
        <time>2021-10-28T12:48:13Z</time>
      </trkpt>
      <trkpt lat="45.44456" lon="5.87581">
        <ele>836.48</ele>
        <time>2021-10-28T12:48:44Z</time>
      </trkpt>
      <trkpt lat="45.44415" lon="5.87596">
        <ele>831.68</ele>
        <time>2021-10-28T12:49:22Z</time>
      </trkpt>
      <trkpt lat="45.44372" lon="5.87608">
        <ele>828.31</ele>
        <time>2021-10-28T12:49:56Z</time>
      </trkpt>
      <trkpt lat="45.44322" lon="5.87615">
        <ele>822.55</ele>
        <time>2021-10-28T12:50:37Z</time>
      </trkpt>
      <trkpt lat="45.44289" lon="5.87611">
        <ele>821.58</ele>
        <time>2021-10-28T12:51:04Z</time>
      </trkpt>
      <trkpt lat="45.44255" lon="5.87606">
        <ele>820.62</ele>
        <time>2021-10-28T12:51:30Z</time>
      </trkpt>
      <trkpt lat="45.44079" lon="5.87449">
        <ele>848.02</ele>
        <time>2021-10-28T12:55:14Z</time>
      </trkpt>
      <trkpt lat="45.43916" lon="5.87375">
        <ele>875.42</ele>
        <time>2021-10-28T13:02:41Z</time>
      </trkpt>
      <trkpt lat="45.43856" lon="5.87401">
        <ele>879.74</ele>
        <time>2021-10-28T13:03:48Z</time>
      </trkpt>
      <trkpt lat="45.43815" lon="5.87434">
        <ele>886.95</ele>
        <time>2021-10-28T13:04:37Z</time>
      </trkpt>
      <trkpt lat="45.4377" lon="5.87432">
        <ele>895.12</ele>
        <time>2021-10-28T13:05:23Z</time>
      </trkpt>
      <trkpt lat="45.4372" lon="5.87421">
        <ele>901.85</ele>
        <time>2021-10-28T13:06:15Z</time>
      </trkpt>
      <trkpt lat="45.43709" lon="5.87378">
        <ele>912.91</ele>
        <time>2021-10-28T13:07:30Z</time>
      </trkpt>
      <trkpt lat="45.43699" lon="5.8733">
        <ele>917.72</ele>
        <time>2021-10-28T13:08:12Z</time>
      </trkpt>
      <trkpt lat="45.43687" lon="5.87288">
        <ele>916.27</ele>
        <time>2021-10-28T13:08:42Z</time>
      </trkpt>
      <trkpt lat="45.43597" lon="5.87078">
        <ele>861</ele>
        <time>2021-10-28T13:12:54Z</time>
      </trkpt>
      <trkpt lat="45.43558" lon="5.87084">
        <ele>848.5</ele>
        <time>2021-10-28T13:13:55Z</time>
      </trkpt>
      <trkpt lat="45.43519" lon="5.87082">
        <ele>846.1</ele>
        <time>2021-10-28T13:15:58Z</time>
      </trkpt>
      <trkpt lat="45.43481" lon="5.87047">
        <ele>842.73</ele>
        <time>2021-10-28T13:20:15Z</time>
      </trkpt>
      <trkpt lat="45.43462" lon="5.87009">
        <ele>840.33</ele>
        <time>2021-10-28T13:20:57Z</time>
      </trkpt>
      <trkpt lat="45.43496" lon="5.86981">
        <ele>833.12</ele>
        <time>2021-10-28T13:21:40Z</time>
      </trkpt>
      <trkpt lat="45.43525" lon="5.86893">
        <ele>818.22</ele>
        <time>2021-10-28T13:22:58Z</time>
      </trkpt>
      <trkpt lat="45.43446" lon="5.86795">
        <ele>800.92</ele>
        <time>2021-10-28T13:24:35Z</time>
      </trkpt>
      <trkpt lat="45.43412" lon="5.86809">
        <ele>792.74</ele>
        <time>2021-10-28T13:25:10Z</time>
      </trkpt>
      <trkpt lat="45.43378" lon="5.8681">
        <ele>785.53</ele>
        <time>2021-10-28T13:25:41Z</time>
      </trkpt>
      <trkpt lat="45.43348" lon="5.86835">
        <ele>782.17</ele>
        <time>2021-10-28T13:26:08Z</time>
      </trkpt>
      <trkpt lat="45.43325" lon="5.86863">
        <ele>778.32</ele>
        <time>2021-10-28T13:26:39Z</time>
      </trkpt>
      <trkpt lat="45.43302" lon="5.86893">
        <ele>774.96</ele>
        <time>2021-10-28T13:27:03Z</time>
      </trkpt>
      <trkpt lat="45.43281" lon="5.86922">
        <ele>769.19</ele>
        <time>2021-10-28T13:27:29Z</time>
      </trkpt>
      <trkpt lat="45.43261" lon="5.86949">
        <ele>763.9</ele>
        <time>2021-10-28T13:27:54Z</time>
      </trkpt>
      <trkpt lat="45.43247" lon="5.86978">
        <ele>761.5</ele>
        <time>2021-10-28T13:29:25Z</time>
      </trkpt>
      <trkpt lat="45.43243" lon="5.87018">
        <ele>757.18</ele>
        <time>2021-10-28T13:29:51Z</time>
      </trkpt>
      <trkpt lat="45.43258" lon="5.87044">
        <ele>751.89</ele>
        <time>2021-10-28T13:30:15Z</time>
      </trkpt>
      <trkpt lat="45.43283" lon="5.87072">
        <ele>746.12</ele>
        <time>2021-10-28T13:30:42Z</time>
      </trkpt>
      <trkpt lat="45.4328" lon="5.87134">
        <ele>739.39</ele>
        <time>2021-10-28T13:31:15Z</time>
      </trkpt>
      <trkpt lat="45.43277" lon="5.87176">
        <ele>735.07</ele>
        <time>2021-10-28T13:31:38Z</time>
      </trkpt>
      <trkpt lat="45.43303" lon="5.87194">
        <ele>730.26</ele>
        <time>2021-10-28T13:32:04Z</time>
      </trkpt>
      <trkpt lat="45.43287" lon="5.87216">
        <ele>727.86</ele>
        <time>2021-10-28T13:32:31Z</time>
      </trkpt>
      <trkpt lat="45.43262" lon="5.87198">
        <ele>726.41</ele>
        <time>2021-10-28T13:33:00Z</time>
      </trkpt>
      <trkpt lat="45.43242" lon="5.87165">
        <ele>724.01</ele>
        <time>2021-10-28T13:33:27Z</time>
      </trkpt>
      <trkpt lat="45.4322" lon="5.87173">
        <ele>719.68</ele>
        <time>2021-10-28T13:34:27Z</time>
      </trkpt>
      <trkpt lat="45.43198" lon="5.87205">
        <ele>729.3</ele>
        <time>2021-10-28T13:35:22Z</time>
      </trkpt>
      <trkpt lat="45.43163" lon="5.87293">
        <ele>739.87</ele>
        <time>2021-10-28T13:36:43Z</time>
      </trkpt>
      <trkpt lat="45.43138" lon="5.8733">
        <ele>746.12</ele>
        <time>2021-10-28T13:37:21Z</time>
      </trkpt>
      <trkpt lat="45.43116" lon="5.87366">
        <ele>747.56</ele>
        <time>2021-10-28T13:37:49Z</time>
      </trkpt>
      <trkpt lat="45.43079" lon="5.87296">
        <ele>743.72</ele>
        <time>2021-10-28T13:41:43Z</time>
      </trkpt>
      <trkpt lat="45.43016" lon="5.87117">
        <ele>722.09</ele>
        <time>2021-10-28T13:44:16Z</time>
      </trkpt>
      <trkpt lat="45.42918" lon="5.87012">
        <ele>688.92</ele>
        <time>2021-10-28T13:47:49Z</time>
      </trkpt>
      <trkpt lat="45.42897" lon="5.86985">
        <ele>687.48</ele>
        <time>2021-10-28T13:48:13Z</time>
      </trkpt>
      <trkpt lat="45.42795" lon="5.86923">
        <ele>694.21</ele>
        <time>2021-10-28T13:49:56Z</time>
      </trkpt>
      <trkpt lat="45.42758" lon="5.86865">
        <ele>697.09</ele>
        <time>2021-10-28T13:50:41Z</time>
      </trkpt>
      <trkpt lat="45.42709" lon="5.868">
        <ele>709.59</ele>
        <time>2021-10-28T13:51:57Z</time>
      </trkpt>
      <trkpt lat="45.42639" lon="5.86793">
        <ele>705.26</ele>
        <time>2021-10-28T13:53:00Z</time>
      </trkpt>
      <trkpt lat="45.4253" lon="5.86755">
        <ele>708.63</ele>
        <time>2021-10-28T13:56:06Z</time>
      </trkpt>
      <trkpt lat="45.42433" lon="5.86776">
        <ele>711.51</ele>
        <time>2021-10-28T13:57:45Z</time>
      </trkpt>
      <trkpt lat="45.42409" lon="5.86539">
        <ele>697.57</ele>
        <time>2021-10-28T14:01:40Z</time>
      </trkpt>
      <trkpt lat="45.42361" lon="5.86417">
        <ele>701.9</ele>
        <time>2021-10-28T14:03:14Z</time>
      </trkpt>
      <trkpt lat="45.42304" lon="5.86325">
        <ele>702.38</ele>
        <time>2021-10-28T14:04:15Z</time>
      </trkpt>
      <trkpt lat="45.42264" lon="5.86304">
        <ele>702.86</ele>
        <time>2021-10-28T14:04:49Z</time>
      </trkpt>
      <trkpt lat="45.42206" lon="5.86288">
        <ele>703.34</ele>
        <time>2021-10-28T14:05:34Z</time>
      </trkpt>
      <trkpt lat="45.42172" lon="5.86283">
        <ele>704.78</ele>
        <time>2021-10-28T14:06:01Z</time>
      </trkpt>
      <trkpt lat="45.42145" lon="5.86264">
        <ele>699.5</ele>
        <time>2021-10-28T14:06:27Z</time>
      </trkpt>
      <trkpt lat="45.42114" lon="5.86234">
        <ele>697.09</ele>
        <time>2021-10-28T14:06:57Z</time>
      </trkpt>
      <trkpt lat="45.42077" lon="5.86182">
        <ele>685.56</ele>
        <time>2021-10-28T14:07:45Z</time>
      </trkpt>
      <trkpt lat="45.4205" lon="5.86087">
        <ele>674.02</ele>
        <time>2021-10-28T14:08:58Z</time>
      </trkpt>
      <trkpt lat="45.42031" lon="5.86011">
        <ele>666.33</ele>
        <time>2021-10-28T14:09:55Z</time>
      </trkpt>
      <trkpt lat="45.41961" lon="5.85904">
        <ele>662.49</ele>
        <time>2021-10-28T14:11:24Z</time>
      </trkpt>
      <trkpt lat="45.4191" lon="5.85832">
        <ele>662.97</ele>
        <time>2021-10-28T14:12:36Z</time>
      </trkpt>
      <trkpt lat="45.41875" lon="5.85757">
        <ele>658.64</ele>
        <time>2021-10-28T14:13:25Z</time>
      </trkpt>
      <trkpt lat="45.41857" lon="5.8571">
        <ele>655.76</ele>
        <time>2021-10-28T14:13:57Z</time>
      </trkpt>
      <trkpt lat="45.41726" lon="5.85543">
        <ele>641.34</ele>
        <time>2021-10-28T14:16:27Z</time>
      </trkpt>
      <trkpt lat="45.41703" lon="5.85516">
        <ele>639.41</ele>
        <time>2021-10-28T14:16:54Z</time>
      </trkpt>
      <trkpt lat="45.41685" lon="5.85481">
        <ele>635.09</ele>
        <time>2021-10-28T14:17:22Z</time>
      </trkpt>
      <trkpt lat="45.41706" lon="5.85464">
        <ele>633.65</ele>
        <time>2021-10-28T14:17:49Z</time>
      </trkpt>
      <trkpt lat="45.41733" lon="5.85467">
        <ele>632.68</ele>
        <time>2021-10-28T14:18:15Z</time>
      </trkpt>
    </trkseg>
  </trk>
</gpx>